This is the latest recevied weather packets stored in our database for station/object KC3ELT-10. If no packets are shown the sender has not sent any weather packets the latest 10 day(s).
| Time | Temp. | Humidity | Pressure | Rain* | Wind** | Luminosity | Snow |
|---|---|---|---|---|---|---|---|
| 1777676879 | 13.89° C | 47% | 1005 hPa | 0 mm | 0 m/s | - | - |
| 1777676579 | 13.89° C | 47% | 1005 hPa | 0 mm | 0.89 m/s, 186° | - | - |
| 1777676279 | 13.89° C | 46% | 1004.9 hPa | 0 mm | 0 m/s | - | - |
| 1777675979 | 13.89° C | 46% | 1004.9 hPa | 0 mm | 1.79 m/s, 238° | - | - |
| 1777675678 | 13.89° C | 46% | 1004.9 hPa | 0 mm | 0.45 m/s, 254° | - | - |
| 1777675379 | 13.89° C | 46% | 1004.9 hPa | 0 mm | 0.45 m/s, 187° | - | - |
| 1777675079 | 13.89° C | 46% | 1004.9 hPa | 0 mm | 0.45 m/s, 190° | - | - |
| 1777674779 | 13.89° C | 47% | 1004.9 hPa | 0 mm | 1.79 m/s, 293° | - | - |
| 1777674479 | 13.89° C | 47% | 1005.2 hPa | 0 mm | 0.45 m/s, 179° | - | - |
| 1777674179 | 13.89° C | 46% | 1005.2 hPa | 0 mm | 0.89 m/s, 174° | - | - |
| 1777673879 | 14.44° C | 44% | 1005.2 hPa | 0 mm | 0.45 m/s, 201° | - | - |
| 1777673579 | 14.44° C | 44% | 1005.1 hPa | 0 mm | 2.24 m/s, 205° | - | - |
| 1777673279 | 15° C | 43% | 1005.1 hPa | 0 mm | 1.34 m/s, 290° | - | - |
| 1777672979 | 15° C | 43% | 1005.1 hPa | 0 mm | 0.45 m/s, 235° | - | - |
| 1777672679 | 15.56° C | 44% | 1005 hPa | 0 mm | 0.89 m/s, 203° | - | - |
| 1777672379 | 15.56° C | 44% | 1005 hPa | 0 mm | 2.24 m/s, 222° | - | - |
| 1777672079 | 15.56° C | 42% | 1005 hPa | 0 mm | 2.24 m/s, 250° | - | - |
| 1777671779 | 15.56° C | 43% | 1004.9 hPa | 0 mm | 3.13 m/s, 264° | - | - |
| 1777671479 | 15.56° C | 44% | 1004.9 hPa | 0 mm | 0.45 m/s, 181° | - | - |
| 1777671179 | 15.56° C | 44% | 1004.9 hPa | 0 mm | 1.79 m/s, 193° | - | - |
| 1777670879 | 15° C | 46% | 1005.1 hPa | 0 mm | 1.34 m/s, 165° | - | - |
| 1777670579 | 14.44° C | 45% | 1005.1 hPa | 0 mm | 2.68 m/s, 207° | - | - |
| 1777670279 | 15° C | 45% | 1005.1 hPa | 0 mm | 0.89 m/s, 197° | - | - |
| 1777669979 | 15° C | 45% | 1005 hPa | 0 mm | 1.34 m/s, 260° | - | - |
| 1777669679 | 15° C | 45% | 1005 hPa | 0 mm | 0.89 m/s, 256° | - | - |
* Rain latest hour (hover to see other rain measurements)
** Current wind speed in m/s (hover to see current wind gust speed)